Time;durP1;ratioP1;P1;durP2;ratioP2;P2;SDS_P1;SDS_P2;PMS_P1;PMS_P2;Temp;Humidity;BMP_temperature;BMP_pressure;BME280_temperature;BME280_humidity;BME280_pressure;Samples;Min_cycle;Max_cycle;Signal;HPM_P1;HPM_P2
2022/01/29 00:01:58;;;;;;;31.45;20.42;;;;;;;;;;4955517;28;20230;-40
2022/01/29 00:04:25;;;;;;;28.92;21.30;;;;;;;;;;4968185;28;20240;-37
2022/01/29 00:06:52;;;;;;;31.85;21.08;;;;;;;;;;4974329;28;20248;-35
2022/01/29 00:09:19;;;;;;;26.75;20.30;;;;;;;;;;4972779;28;21042;-42
2022/01/29 00:11:46;;;;;;;27.40;20.38;;;;;;;;;;4974423;28;20315;-44
2022/01/29 00:14:13;;;;;;;32.15;20.85;;;;;;;;;;4974411;28;20232;-40
2022/01/29 00:16:43;;;;;;;31.25;21.88;;;;;;;;;;4987029;28;20236;-39
2022/01/29 00:19:10;;;;;;;32.25;21.63;;;;;;;;;;4993816;28;21081;-41
2022/01/29 00:21:37;;;;;;;34.78;21.48;;;;;;;;;;4980291;28;21158;-44
2022/01/29 00:24:04;;;;;;;42.78;22.33;;;;;;;;;;4974198;28;20233;-42
2022/01/29 00:26:31;;;;;;;35.03;20.98;;;;;;;;;;4974183;28;20240;-42
2022/01/29 00:29:04;;;;;;;34.17;22.27;;;;;;;;;;4974464;28;20233;-45
2022/01/29 00:31:31;;;;;;;31.52;21.20;;;;;;;;;;4981512;28;20225;-41
2022/01/29 00:34:01;;;;;;;33.08;22.15;;;;;;;;;;4973681;28;20233;-43
2022/01/29 00:36:28;;;;;;;30.08;20.80;;;;;;;;;;4964069;28;20239;-41
2022/01/29 00:38:56;;;;;;;37.00;20.77;;;;;;;;;;4954172;28;20324;-41
2022/01/29 00:41:23;;;;;;;30.15;20.90;;;;;;;;;;4954589;28;20225;-44
2022/01/29 00:43:54;;;;;;;31.60;21.02;;;;;;;;;;4968134;28;21195;-43
2022/01/29 00:46:21;;;;;;;32.78;21.65;;;;;;;;;;4974912;28;20313;-40
2022/01/29 00:48:48;;;;;;;31.73;20.50;;;;;;;;;;4993479;28;20645;-43
2022/01/29 00:51:15;;;;;;;30.25;21.13;;;;;;;;;;4978556;28;20233;-44
2022/01/29 00:53:42;;;;;;;33.17;21.60;;;;;;;;;;4972563;28;20247;-42
2022/01/29 00:56:10;;;;;;;34.03;21.90;;;;;;;;;;4973692;28;20235;-43
2022/01/29 00:58:37;;;;;;;33.58;22.15;;;;;;;;;;4973227;28;20302;-40
2022/01/29 01:01:04;;;;;;;33.10;21.85;;;;;;;;;;4981508;28;20290;-38
2022/01/29 01:03:31;;;;;;;32.55;21.98;;;;;;;;;;4990421;28;20231;-40
2022/01/29 01:05:58;;;;;;;31.45;21.48;;;;;;;;;;4964691;28;20245;-40
2022/01/29 01:08:25;;;;;;;30.48;21.50;;;;;;;;;;4971000;28;20240;-41
2022/01/29 01:10:52;;;;;;;33.45;21.30;;;;;;;;;;4971854;28;20276;-38
2022/01/29 01:13:19;;;;;;;31.20;21.52;;;;;;;;;;4969647;28;20233;-41
2022/01/29 01:15:46;;;;;;;27.63;20.17;;;;;;;;;;4965692;28;20233;-44
2022/01/29 01:18:13;;;;;;;31.05;20.92;;;;;;;;;;4972649;28;20232;-41
2022/01/29 01:20:40;;;;;;;32.60;21.85;;;;;;;;;;4973430;28;20225;-42
2022/01/29 01:23:07;;;;;;;28.75;20.88;;;;;;;;;;4972629;28;20313;-43
2022/01/29 01:25:34;;;;;;;31.85;21.50;;;;;;;;;;4973735;28;20229;-43
2022/01/29 01:28:01;;;;;;;30.63;21.88;;;;;;;;;;4957515;28;20252;-41
2022/01/29 01:30:28;;;;;;;29.50;21.50;;;;;;;;;;4959927;28;20239;-41
2022/01/29 01:32:55;;;;;;;31.10;20.55;;;;;;;;;;4976417;28;20237;-42
2022/01/29 01:35:36;;;;;;;26.92;20.38;;;;;;;;;;4972855;28;20714;-42
2022/01/29 01:38:15;;;;;;;28.65;21.50;;;;;;;;;;4972489;28;20244;-41
2022/01/29 01:40:45;;;;;;;28.73;20.02;;;;;;;;;;4973036;28;20235;-37
2022/01/29 01:43:12;;;;;;;32.90;21.42;;;;;;;;;;4973009;28;20225;-43
2022/01/29 01:45:39;;;;;;;32.47;21.15;;;;;;;;;;4977191;28;20746;-42
2022/01/29 01:48:06;;;;;;;30.80;20.52;;;;;;;;;;4991411;28;20275;-43
2022/01/29 01:50:33;;;;;;;28.05;20.92;;;;;;;;;;4972861;28;20225;-41
2022/01/29 01:53:00;;;;;;;28.67;21.40;;;;;;;;;;4972820;28;20241;-40
2022/01/29 01:55:27;;;;;;;29.60;20.85;;;;;;;;;;4972768;28;20225;-43
2022/01/29 01:57:55;;;;;;;32.55;20.95;;;;;;;;;;4972438;28;20274;-42
2022/01/29 02:00:22;;;;;;;27.98;20.58;;;;;;;;;;4974288;28;20233;-43
2022/01/29 02:02:49;;;;;;;28.15;20.48;;;;;;;;;;4992416;28;20715;-43
2022/01/29 02:05:16;;;;;;;26.77;19.52;;;;;;;;;;4992405;28;20267;-43
2022/01/29 02:07:43;;;;;;;28.83;20.52;;;;;;;;;;4992544;28;20248;-38
2022/01/29 02:10:11;;;;;;;30.67;20.42;;;;;;;;;;4989403;28;20223;-42
2022/01/29 02:12:38;;;;;;;27.05;19.08;;;;;;;;;;4952442;28;20315;-41
2022/01/29 02:15:06;;;;;;;25.77;19.05;;;;;;;;;;4953854;28;20260;-42
2022/01/29 02:17:33;;;;;;;28.60;20.42;;;;;;;;;;4992028;28;20235;-44
2022/01/29 02:20:00;;;;;;;25.02;19.30;;;;;;;;;;4992140;28;20235;-38
2022/01/29 02:22:27;;;;;;;27.13;18.83;;;;;;;;;;4979827;28;20245;-44
2022/01/29 02:24:54;;;;;;;31.25;19.15;;;;;;;;;;4972213;28;20700;-43
2022/01/29 02:27:20;;;;;;;26.83;18.92;;;;;;;;;;4971776;28;20716;-40
2022/01/29 02:29:49;;;;;;;28.67;19.63;;;;;;;;;;4971372;28;20235;-43
2022/01/29 02:32:16;;;;;;;25.88;19.27;;;;;;;;;;4987894;28;20232;-42
2022/01/29 02:34:44;;;;;;;26.98;18.30;;;;;;;;;;4972111;28;20719;-42
2022/01/29 02:37:11;;;;;;;27.77;19.80;;;;;;;;;;4971598;28;20229;-42
2022/01/29 02:39:38;;;;;;;24.58;18.30;;;;;;;;;;4970639;28;20229;-44
2022/01/29 02:42:05;;;;;;;25.52;19.00;;;;;;;;;;4972170;28;20259;-43
2022/01/29 02:44:32;;;;;;;26.85;18.42;;;;;;;;;;4981626;28;20239;-40
2022/01/29 02:47:15;;;;;;;26.73;19.00;;;;;;;;;;4987725;28;21097;-44
2022/01/29 02:49:42;;;;;;;28.33;18.90;;;;;;;;;;4988466;28;20225;-39
2022/01/29 02:52:09;;;;;;;22.38;17.92;;;;;;;;;;4972067;28;20235;-43
2022/01/29 02:54:36;;;;;;;27.27;18.45;;;;;;;;;;4969881;28;20239;-38
2022/01/29 02:57:03;;;;;;;24.33;17.38;;;;;;;;;;4972116;28;20750;-42
2022/01/29 02:59:30;;;;;;;27.13;17.55;;;;;;;;;;4971781;28;20348;-44
2022/01/29 03:01:57;;;;;;;22.45;17.02;;;;;;;;;;4979167;28;20239;-40
2022/01/29 03:04:24;;;;;;;22.77;16.50;;;;;;;;;;4971770;28;20233;-41
2022/01/29 03:06:51;;;;;;;25.10;15.95;;;;;;;;;;4970803;28;21154;-42
2022/01/29 03:09:18;;;;;;;23.63;17.25;;;;;;;;;;4971723;28;20228;-42
2022/01/29 03:11:45;;;;;;;22.25;16.83;;;;;;;;;;4971844;28;20239;-42
2022/01/29 03:14:12;;;;;;;20.70;15.85;;;;;;;;;;4971832;28;20240;-44
2022/01/29 03:16:39;;;;;;;22.98;15.80;;;;;;;;;;4975700;28;20237;-43
2022/01/29 03:19:06;;;;;;;19.05;14.77;;;;;;;;;;4952374;28;20238;-39
2022/01/29 03:21:33;;;;;;;17.33;14.70;;;;;;;;;;4968393;23;20243;-35
2022/01/29 03:24:00;;;;;;;18.23;14.02;;;;;;;;;;4953967;28;20241;-37
2022/01/29 03:26:27;;;;;;;18.20;14.52;;;;;;;;;;4958694;28;20237;-36
2022/01/29 03:28:54;;;;;;;17.83;13.63;;;;;;;;;;4957976;28;20222;-35
2022/01/29 03:31:21;;;;;;;17.73;14.18;;;;;;;;;;4963731;28;20233;-35
2022/01/29 03:33:48;;;;;;;16.77;13.15;;;;;;;;;;4973381;28;20217;-37
2022/01/29 03:36:15;;;;;;;15.93;13.05;;;;;;;;;;4973083;28;20233;-36
2022/01/29 03:38:42;;;;;;;17.23;13.57;;;;;;;;;;4967685;28;20222;-37
2022/01/29 03:41:11;;;;;;;14.55;12.65;;;;;;;;;;4955518;28;20233;-36
2022/01/29 03:43:44;;;;;;;16.75;11.68;;;;;;;;;;4955176;28;20234;-37
2022/01/29 03:46:11;;;;;;;14.02;12.23;;;;;;;;;;4964159;28;20283;-35
2022/01/29 03:48:38;;;;;;;17.73;12.57;;;;;;;;;;4974717;28;20320;-36
2022/01/29 03:51:05;;;;;;;15.68;12.00;;;;;;;;;;4957504;28;20230;-36
2022/01/29 03:53:32;;;;;;;16.02;12.15;;;;;;;;;;4955316;28;20232;-36
2022/01/29 03:55:59;;;;;;;14.23;11.68;;;;;;;;;;4955536;28;20241;-37
2022/01/29 03:58:26;;;;;;;13.80;10.85;;;;;;;;;;4955204;28;20731;-36
2022/01/29 04:00:53;;;;;;;12.73;11.15;;;;;;;;;;4954909;28;20711;-36
2022/01/29 04:03:20;;;;;;;14.68;11.52;;;;;;;;;;4955375;28;20261;-36
2022/01/29 04:05:47;;;;;;;14.65;11.38;;;;;;;;;;4955241;28;20765;-35
2022/01/29 04:08:17;;;;;;;12.85;11.02;;;;;;;;;;4955137;28;20259;-35
2022/01/29 04:10:46;;;;;;;12.27;10.82;;;;;;;;;;4954984;28;20230;-35
2022/01/29 04:13:14;;;;;;;13.13;11.63;;;;;;;;;;4954515;28;20229;-36
2022/01/29 04:15:41;;;;;;;11.13;9.80;;;;;;;;;;4954364;28;20233;-37
2022/01/29 04:18:08;;;;;;;12.15;10.43;;;;;;;;;;4955091;28;20333;-34
2022/01/29 04:20:35;;;;;;;13.50;10.07;;;;;;;;;;4955049;28;20334;-36
2022/01/29 04:23:02;;;;;;;11.25;9.93;;;;;;;;;;4934968;28;20362;-36
2022/01/29 04:25:29;;;;;;;10.93;9.13;;;;;;;;;;4935761;29;20246;-36
2022/01/29 04:27:56;;;;;;;15.93;10.90;;;;;;;;;;4935818;29;20237;-36
2022/01/29 04:30:31;;;;;;;11.75;10.02;;;;;;;;;;4938034;28;20383;-36
2022/01/29 04:35:44;;;;;;;9.73;8.65;;;;;;;;;;4935562;28;20230;-36
2022/01/29 04:38:11;;;;;;;10.77;9.07;;;;;;;;;;4935307;28;20234;-36
2022/01/29 04:40:38;;;;;;;13.50;10.25;;;;;;;;;;4934625;29;20222;-36
2022/01/29 04:43:05;;;;;;;12.60;9.57;;;;;;;;;;4935437;29;20230;-36
2022/01/29 04:45:32;;;;;;;12.25;9.60;;;;;;;;;;4938293;28;21065;-37
2022/01/29 04:47:59;;;;;;;11.85;10.13;;;;;;;;;;4955167;28;20225;-35
2022/01/29 04:50:26;;;;;;;12.45;9.50;;;;;;;;;;4954482;28;20234;-36
2022/01/29 04:52:53;;;;;;;12.63;9.85;;;;;;;;;;4942028;28;20237;-37
2022/01/29 04:55:20;;;;;;;12.60;9.57;;;;;;;;;;4934169;29;20730;-35
2022/01/29 04:57:47;;;;;;;11.52;9.48;;;;;;;;;;4935100;29;20238;-36
2022/01/29 05:00:20;;;;;;;11.68;10.05;;;;;;;;;;4936505;28;20234;-36
2022/01/29 05:02:47;;;;;;;11.82;9.73;;;;;;;;;;4954442;28;20229;-36
2022/01/29 05:05:14;;;;;;;11.98;10.07;;;;;;;;;;4954198;28;21044;-36
2022/01/29 05:07:41;;;;;;;13.45;10.40;;;;;;;;;;4934424;28;20241;-36
2022/01/29 05:10:08;;;;;;;14.20;10.05;;;;;;;;;;4935215;28;20237;-36
2022/01/29 05:12:54;;;;;;;14.25;10.82;;;;;;;;;;4935173;28;20325;-35
2022/01/29 05:15:37;;;;;;;14.07;11.27;;;;;;;;;;4937297;28;20697;-37
2022/01/29 05:29:06;;;;;;;13.95;11.43;;;;;;;;;;4934263;28;20234;-36
2022/01/29 05:31:33;;;;;;;14.50;11.30;;;;;;;;;;4946321;28;20229;-36
2022/01/29 05:34:00;;;;;;;13.95;11.25;;;;;;;;;;4943109;28;20237;-37
2022/01/29 05:36:27;;;;;;;13.93;10.73;;;;;;;;;;4934454;29;20709;-36
2022/01/29 05:38:56;;;;;;;14.15;10.43;;;;;;;;;;4934583;29;20337;-36
2022/01/29 05:41:23;;;;;;;14.02;10.13;;;;;;;;;;4933930;29;20230;-37
2022/01/29 05:43:50;;;;;;;14.63;11.45;;;;;;;;;;4942280;28;20235;-37
2022/01/29 05:46:17;;;;;;;13.65;10.85;;;;;;;;;;4944945;28;20246;-37
2022/01/29 05:48:45;;;;;;;14.30;10.85;;;;;;;;;;4934652;29;20313;-37
2022/01/29 05:51:12;;;;;;;13.82;10.80;;;;;;;;;;4933655;29;20240;-36
2022/01/29 05:53:39;;;;;;;15.93;11.48;;;;;;;;;;4934376;29;20230;-37
2022/01/29 05:56:06;;;;;;;13.23;11.13;;;;;;;;;;4944202;28;20237;-36
2022/01/29 05:58:33;;;;;;;16.23;11.38;;;;;;;;;;4948617;28;21030;-37
2022/01/29 06:01:00;;;;;;;13.50;11.50;;;;;;;;;;4940705;28;20245;-38
2022/01/29 06:03:27;;;;;;;15.70;10.82;;;;;;;;;;4946251;28;20229;-37
2022/01/29 06:05:54;;;;;;;14.98;10.60;;;;;;;;;;4947338;28;20261;-36
2022/01/29 06:08:21;;;;;;;13.80;10.70;;;;;;;;;;4949612;28;20229;-37
2022/01/29 06:10:48;;;;;;;15.10;11.10;;;;;;;;;;4946832;28;20233;-37
2022/01/29 06:13:15;;;;;;;15.63;10.93;;;;;;;;;;4949975;28;20233;-37
2022/01/29 06:15:42;;;;;;;13.90;11.05;;;;;;;;;;4952586;28;20241;-37
2022/01/29 06:18:15;;;;;;;13.93;11.07;;;;;;;;;;4952628;28;20919;-37
2022/01/29 06:20:42;;;;;;;16.27;11.80;;;;;;;;;;4951679;28;20229;-38
2022/01/29 06:23:10;;;;;;;15.38;11.45;;;;;;;;;;4944332;28;21391;-37
2022/01/29 06:25:37;;;;;;;14.95;11.90;;;;;;;;;;4949881;28;21080;-37
2022/01/29 06:28:04;;;;;;;16.23;11.88;;;;;;;;;;4953739;28;20236;-37
2022/01/29 06:30:31;;;;;;;14.38;10.52;;;;;;;;;;4952469;28;20241;-37
2022/01/29 06:32:58;;;;;;;14.57;10.95;;;;;;;;;;4952432;28;20230;-37
2022/01/29 06:35:25;;;;;;;14.88;11.18;;;;;;;;;;4948761;28;20738;-37
2022/01/29 06:37:52;;;;;;;14.50;10.70;;;;;;;;;;4951161;28;20999;-37
2022/01/29 06:40:19;;;;;;;15.13;10.85;;;;;;;;;;4952976;28;21016;-37
2022/01/29 06:42:46;;;;;;;15.48;11.10;;;;;;;;;;4953129;28;20288;-37
2022/01/29 06:45:13;;;;;;;14.18;10.70;;;;;;;;;;4950528;28;20240;-37
2022/01/29 06:47:40;;;;;;;14.63;10.80;;;;;;;;;;4933125;29;20231;-37
2022/01/29 06:50:07;;;;;;;12.95;10.13;;;;;;;;;;4933760;29;21004;-36
2022/01/29 06:52:34;;;;;;;14.20;10.63;;;;;;;;;;4933729;29;20237;-37
2022/01/29 06:55:01;;;;;;;13.98;10.55;;;;;;;;;;4933705;29;20237;-37
2022/01/29 06:57:28;;;;;;;14.30;10.13;;;;;;;;;;4932682;29;20966;-37
2022/01/29 06:59:55;;;;;;;12.95;9.95;;;;;;;;;;4933677;29;20232;-37
2022/01/29 07:02:21;;;;;;;13.90;9.35;;;;;;;;;;4951604;28;20233;-37
2022/01/29 07:04:48;;;;;;;12.18;9.38;;;;;;;;;;4953089;28;20727;-36
2022/01/29 07:07:15;;;;;;;13.32;9.93;;;;;;;;;;4950501;28;20617;-36
2022/01/29 07:09:42;;;;;;;12.95;9.93;;;;;;;;;;4933036;29;20730;-37
2022/01/29 07:12:10;;;;;;;14.15;9.10;;;;;;;;;;4933313;29;20234;-37
2022/01/29 07:14:39;;;;;;;10.57;9.07;;;;;;;;;;4934292;29;20234;-37
2022/01/29 07:17:06;;;;;;;14.07;8.68;;;;;;;;;;4952646;28;20240;-37
2022/01/29 07:19:33;;;;;;;11.00;8.75;;;;;;;;;;4936594;29;20739;-36
2022/01/29 07:22:00;;;;;;;9.80;8.35;;;;;;;;;;4936035;28;20241;-39
2022/01/29 07:24:27;;;;;;;13.18;8.57;;;;;;;;;;4936966;29;21051;-38
2022/01/29 07:26:54;;;;;;;10.63;8.85;;;;;;;;;;4936763;29;20222;-36
2022/01/29 07:29:21;;;;;;;10.98;8.55;;;;;;;;;;4935583;29;20234;-36
2022/01/29 07:31:48;;;;;;;13.93;8.70;;;;;;;;;;4950000;28;20719;-37
2022/01/29 07:34:15;;;;;;;12.30;8.35;;;;;;;;;;4955407;28;20263;-36
2022/01/29 07:36:42;;;;;;;11.25;7.82;;;;;;;;;;4945928;28;20234;-37
2022/01/29 07:39:09;;;;;;;10.43;7.38;;;;;;;;;;4935970;29;21133;-37
2022/01/29 07:41:36;;;;;;;11.07;7.72;;;;;;;;;;4936700;28;20664;-36
2022/01/29 07:44:03;;;;;;;9.93;6.82;;;;;;;;;;4936462;28;20238;-37
2022/01/29 07:46:30;;;;;;;8.98;7.10;;;;;;;;;;4939397;28;20238;-35
2022/01/29 07:48:57;;;;;;;9.68;6.80;;;;;;;;;;4936329;29;20293;-36
2022/01/29 07:51:24;;;;;;;8.10;6.10;;;;;;;;;;4947481;28;20229;-36
2022/01/29 07:53:51;;;;;;;9.93;6.15;;;;;;;;;;4955223;28;21239;-36
2022/01/29 07:56:20;;;;;;;7.57;5.85;;;;;;;;;;4955233;28;21020;-36
2022/01/29 07:58:47;;;;;;;8.10;5.82;;;;;;;;;;4944507;28;20289;-37
2022/01/29 08:01:14;;;;;;;11.75;5.85;;;;;;;;;;4952496;28;21456;-36
2022/01/29 08:03:41;;;;;;;8.10;5.03;;;;;;;;;;4916994;29;20235;-36
2022/01/29 08:06:08;;;;;;;9.98;5.80;;;;;;;;;;4916931;29;20231;-37
2022/01/29 08:08:35;;;;;;;6.95;4.88;;;;;;;;;;4916908;29;20234;-36
2022/01/29 08:11:02;;;;;;;6.57;5.15;;;;;;;;;;4919601;29;20734;-35
2022/01/29 08:13:29;;;;;;;7.30;5.03;;;;;;;;;;4935105;29;20694;-35
2022/01/29 08:15:56;;;;;;;7.30;4.90;;;;;;;;;;4942816;28;20719;-37
2022/01/29 08:18:23;;;;;;;7.80;5.28;;;;;;;;;;4954843;28;20241;-35
2022/01/29 08:20:51;;;;;;;6.68;4.78;;;;;;;;;;4954606;28;20229;-37
2022/01/29 08:23:18;;;;;;;4.95;4.05;;;;;;;;;;4951108;28;20233;-36
2022/01/29 08:25:45;;;;;;;6.45;4.53;;;;;;;;;;4934227;29;20230;-36
2022/01/29 08:28:12;;;;;;;6.85;4.30;;;;;;;;;;4934598;29;20240;-36
2022/01/29 08:30:39;;;;;;;4.57;4.18;;;;;;;;;;4939090;28;20245;-35
2022/01/29 08:33:06;;;;;;;5.05;3.65;;;;;;;;;;4953713;28;20625;-38
2022/01/29 08:35:33;;;;;;;5.85;3.90;;;;;;;;;;4934420;29;20234;-37
2022/01/29 08:38:00;;;;;;;4.93;3.63;;;;;;;;;;4934636;29;20242;-36
2022/01/29 08:40:27;;;;;;;4.72;3.80;;;;;;;;;;4933815;29;20234;-37
2022/01/29 08:42:54;;;;;;;4.72;3.22;;;;;;;;;;4934200;29;20234;-36
2022/01/29 08:45:21;;;;;;;5.38;3.00;;;;;;;;;;4935968;28;20236;-36
2022/01/29 08:47:48;;;;;;;3.83;2.88;;;;;;;;;;4946955;28;20229;-37
2022/01/29 08:50:15;;;;;;;4.70;3.00;;;;;;;;;;4934302;29;20721;-35
2022/01/29 08:52:42;;;;;;;6.78;3.20;;;;;;;;;;4933779;29;20245;-37
2022/01/29 08:55:09;;;;;;;11.30;3.13;;;;;;;;;;4941426;28;20709;-38
2022/01/29 08:57:36;;;;;;;4.80;2.60;;;;;;;;;;4915044;29;20230;-36
2022/01/29 09:00:03;;;;;;;5.50;3.10;;;;;;;;;;4915290;29;20239;-37
2022/01/29 09:02:30;;;;;;;5.88;3.13;;;;;;;;;;4953145;28;20236;-38
2022/01/29 09:04:57;;;;;;;4.22;3.05;;;;;;;;;;4940004;28;20234;-37
2022/01/29 09:07:24;;;;;;;5.53;2.85;;;;;;;;;;4933127;29;20242;-38
2022/01/29 09:09:51;;;;;;;6.18;2.65;;;;;;;;;;4933880;29;20232;-38
2022/01/29 09:12:18;;;;;;;3.92;2.33;;;;;;;;;;4932924;29;20238;-37
2022/01/29 09:14:45;;;;;;;4.75;2.63;;;;;;;;;;4950031;28;20233;-36
2022/01/29 09:17:12;;;;;;;6.53;3.00;;;;;;;;;;4950997;28;20229;-36
2022/01/29 09:19:39;;;;;;;4.78;2.67;;;;;;;;;;4933662;28;20248;-37
2022/01/29 09:22:06;;;;;;;6.35;3.20;;;;;;;;;;4898316;28;1047508;-37
2022/01/29 09:24:33;;;;;;;19.13;3.97;;;;;;;;;;4933830;28;20420;-35
2022/01/29 09:27:00;;;;;;;5.45;3.35;;;;;;;;;;4935047;29;20396;-36
2022/01/29 09:29:27;;;;;;;10.60;2.92;;;;;;;;;;4933902;29;20234;-37
2022/01/29 09:31:54;;;;;;;7.40;3.20;;;;;;;;;;4945922;28;20238;-37
2022/01/29 09:34:21;;;;;;;8.27;4.10;;;;;;;;;;4947957;28;20715;-36
2022/01/29 09:36:48;;;;;;;9.90;3.22;;;;;;;;;;4952768;28;20240;-36
2022/01/29 09:39:15;;;;;;;5.75;3.28;;;;;;;;;;4943947;28;20245;-38
2022/01/29 09:41:42;;;;;;;8.25;3.08;;;;;;;;;;4953597;28;20234;-37
2022/01/29 09:44:09;;;;;;;7.57;2.78;;;;;;;;;;4952524;28;20234;-37
2022/01/29 09:46:36;;;;;;;7.93;3.50;;;;;;;;;;4952811;28;20293;-37
2022/01/29 09:49:03;;;;;;;7.13;3.22;;;;;;;;;;4952340;28;20244;-37
2022/01/29 09:51:30;;;;;;;8.77;3.00;;;;;;;;;;4948189;28;20423;-36
2022/01/29 09:53:57;;;;;;;7.70;2.97;;;;;;;;;;4950793;28;20222;-37
2022/01/29 09:56:25;;;;;;;6.65;2.90;;;;;;;;;;4952086;28;20992;-39
2022/01/29 09:58:52;;;;;;;6.97;3.03;;;;;;;;;;4952922;28;20241;-39
2022/01/29 10:01:19;;;;;;;4.72;3.00;;;;;;;;;;4933022;28;20242;-35
2022/01/29 10:03:46;;;;;;;6.70;2.92;;;;;;;;;;4950157;28;20474;-36
2022/01/29 10:06:15;;;;;;;8.48;2.80;;;;;;;;;;4941279;28;20261;-35
2022/01/29 10:08:42;;;;;;;10.15;3.10;;;;;;;;;;4934106;29;20238;-34
2022/01/29 10:11:09;;;;;;;8.77;2.50;;;;;;;;;;4934539;29;20244;-34
2022/01/29 10:13:36;;;;;;;7.60;2.80;;;;;;;;;;4933496;29;20234;-35
2022/01/29 10:16:04;;;;;;;7.97;3.20;;;;;;;;;;4941906;28;20225;-36
2022/01/29 10:18:31;;;;;;;8.68;3.22;;;;;;;;;;4953170;28;20245;-35
2022/01/29 10:20:58;;;;;;;9.82;3.72;;;;;;;;;;4952679;28;20238;-35
2022/01/29 10:23:25;;;;;;;8.77;2.88;;;;;;;;;;4947775;28;20399;-34
2022/01/29 10:25:52;;;;;;;6.40;3.63;;;;;;;;;;4951916;28;20730;-35
2022/01/29 10:28:19;;;;;;;5.85;3.63;;;;;;;;;;4950154;28;20237;-35
2022/01/29 10:30:46;;;;;;;6.30;3.13;;;;;;;;;;4952094;28;20240;-34
2022/01/29 10:33:13;;;;;;;5.00;2.72;;;;;;;;;;4937410;28;20229;-34
2022/01/29 10:35:40;;;;;;;9.00;3.13;;;;;;;;;;4938800;28;21008;-41
2022/01/29 10:38:07;;;;;;;5.32;2.60;;;;;;;;;;4928286;28;20244;-39
2022/01/29 10:40:34;;;;;;;10.93;3.10;;;;;;;;;;4930903;28;21257;-37
2022/01/29 10:43:01;;;;;;;12.32;3.15;;;;;;;;;;4933887;28;20245;-38
2022/01/29 10:45:28;;;;;;;3.85;2.30;;;;;;;;;;4931841;28;20241;-37
2022/01/29 10:47:55;;;;;;;5.47;2.60;;;;;;;;;;4931984;28;20594;-39
2022/01/29 10:50:22;;;;;;;6.43;2.60;;;;;;;;;;4932718;28;20441;-35
2022/01/29 10:52:49;;;;;;;6.38;2.35;;;;;;;;;;4936607;28;20240;-38
2022/01/29 10:55:16;;;;;;;7.28;2.70;;;;;;;;;;4936994;28;20241;-37
2022/01/29 10:57:43;;;;;;;13.75;2.70;;;;;;;;;;4934641;28;20237;-38
2022/01/29 11:00:10;;;;;;;4.13;2.08;;;;;;;;;;4934226;28;20246;-38
2022/01/29 11:02:37;;;;;;;5.30;2.47;;;;;;;;;;4932103;28;20620;-35
2022/01/29 11:05:05;;;;;;;9.13;2.42;;;;;;;;;;4932964;28;20716;-35
2022/01/29 11:07:32;;;;;;;5.68;2.20;;;;;;;;;;4934977;28;20237;-34
2022/01/29 11:09:59;;;;;;;7.63;2.33;;;;;;;;;;4934112;28;20422;-35
2022/01/29 11:12:32;;;;;;;8.02;2.17;;;;;;;;;;4938442;28;20431;-36
2022/01/29 11:14:59;;;;;;;5.22;2.10;;;;;;;;;;4940303;28;20244;-36
2022/01/29 11:17:26;;;;;;;8.85;2.35;;;;;;;;;;4941238;28;20281;-36
2022/01/29 11:19:53;;;;;;;4.57;1.85;;;;;;;;;;4942685;28;20247;-34
2022/01/29 11:22:20;;;;;;;6.97;2.00;;;;;;;;;;4939688;28;20898;-36
2022/01/29 11:24:47;;;;;;;5.47;1.80;;;;;;;;;;4940476;28;20229;-35
2022/01/29 11:27:14;;;;;;;6.10;1.80;;;;;;;;;;4944693;28;20237;-35
2022/01/29 11:29:41;;;;;;;5.18;1.77;;;;;;;;;;4941450;28;20237;-36
2022/01/29 11:32:08;;;;;;;5.88;1.88;;;;;;;;;;4941796;28;20236;-35
2022/01/29 11:34:35;;;;;;;4.25;1.80;;;;;;;;;;4942180;28;20244;-35
2022/01/29 11:37:02;;;;;;;4.35;1.67;;;;;;;;;;4940887;28;20265;-36
2022/01/29 11:39:29;;;;;;;3.47;1.50;;;;;;;;;;4939100;28;20250;-36
2022/01/29 11:41:57;;;;;;;3.40;1.70;;;;;;;;;;4939260;28;20236;-35
2022/01/29 11:44:24;;;;;;;3.97;1.50;;;;;;;;;;4938079;28;20236;-36
2022/01/29 11:46:51;;;;;;;4.97;1.58;;;;;;;;;;4939410;28;20987;-33
2022/01/29 11:49:18;;;;;;;4.00;1.50;;;;;;;;;;4939887;28;21075;-36
2022/01/29 11:51:45;;;;;;;11.75;1.80;;;;;;;;;;4936909;28;20230;-34
2022/01/29 11:54:12;;;;;;;9.88;2.35;;;;;;;;;;4936083;29;20230;-35
2022/01/29 11:56:39;;;;;;;16.83;2.10;;;;;;;;;;4947864;28;20422;-37
2022/01/29 11:59:06;;;;;;;10.65;1.50;;;;;;;;;;4951175;28;20849;-38
2022/01/29 12:01:33;;;;;;;7.97;1.80;;;;;;;;;;4951567;28;20236;-33
2022/01/29 12:04:00;;;;;;;7.30;1.70;;;;;;;;;;4943628;28;20492;-34
2022/01/29 12:06:30;;;;;;;8.25;1.75;;;;;;;;;;4938690;28;20321;-33
2022/01/29 12:09:00;;;;;;;6.65;1.55;;;;;;;;;;4935609;29;20234;-36
2022/01/29 12:11:27;;;;;;;6.05;1.50;;;;;;;;;;4936017;29;20237;-35
2022/01/29 12:13:54;;;;;;;6.82;1.40;;;;;;;;;;4940791;28;20848;-36
2022/01/29 12:16:21;;;;;;;3.88;1.20;;;;;;;;;;4947055;28;20238;-36
2022/01/29 12:18:48;;;;;;;8.40;1.48;;;;;;;;;;4935352;29;20254;-35
2022/01/29 12:21:15;;;;;;;5.50;1.50;;;;;;;;;;4934981;29;20256;-35
2022/01/29 12:23:42;;;;;;;7.90;1.38;;;;;;;;;;4935983;29;20721;-36
2022/01/29 12:26:09;;;;;;;12.00;1.85;;;;;;;;;;4934799;29;20947;-36
2022/01/29 12:28:36;;;;;;;3.67;1.10;;;;;;;;;;4935580;29;20238;-37
2022/01/29 12:31:03;;;;;;;4.03;1.40;;;;;;;;;;4934874;28;20689;-36
2022/01/29 12:33:30;;;;;;;4.78;1.23;;;;;;;;;;4935119;29;20237;-36
2022/01/29 12:35:58;;;;;;;9.25;1.70;;;;;;;;;;4934167;29;20974;-37
2022/01/29 12:38:26;;;;;;;4.63;1.80;;;;;;;;;;4935856;29;20234;-36
2022/01/29 12:40:55;;;;;;;4.85;1.50;;;;;;;;;;4935491;29;20242;-36
2022/01/29 12:43:22;;;;;;;6.78;1.80;;;;;;;;;;4935522;29;20232;-36
2022/01/29 12:45:50;;;;;;;5.72;1.50;;;;;;;;;;4934445;28;20347;-35
2022/01/29 12:48:17;;;;;;;7.35;1.77;;;;;;;;;;4947323;28;20717;-36
2022/01/29 12:50:44;;;;;;;6.82;2.00;;;;;;;;;;4935205;29;20226;-36
2022/01/29 12:53:11;;;;;;;4.53;1.85;;;;;;;;;;4934569;29;20270;-36
2022/01/29 12:55:38;;;;;;;4.05;1.67;;;;;;;;;;4935457;29;20230;-35
2022/01/29 12:58:05;;;;;;;6.68;1.85;;;;;;;;;;4933532;29;20444;-36
2022/01/29 13:00:32;;;;;;;4.45;1.55;;;;;;;;;;4938579;28;20337;-36
2022/01/29 13:02:59;;;;;;;4.93;1.77;;;;;;;;;;4954404;28;21017;-36
2022/01/29 13:05:26;;;;;;;5.75;1.60;;;;;;;;;;4952838;28;20704;-35
2022/01/29 13:07:53;;;;;;;4.90;1.88;;;;;;;;;;4936196;28;20242;-36
2022/01/29 13:10:20;;;;;;;4.65;1.58;;;;;;;;;;4935739;29;20236;-37
2022/01/29 13:12:47;;;;;;;5.03;1.33;;;;;;;;;;4935333;29;20230;-36
2022/01/29 13:15:14;;;;;;;4.15;1.33;;;;;;;;;;4937294;28;20264;-36
2022/01/29 13:17:46;;;;;;;5.15;1.40;;;;;;;;;;4954995;28;20244;-36
2022/01/29 13:20:13;;;;;;;4.60;1.50;;;;;;;;;;4944281;28;20238;-36
2022/01/29 13:22:41;;;;;;;4.53;1.70;;;;;;;;;;4935644;28;20751;-37
2022/01/29 13:25:08;;;;;;;3.85;1.30;;;;;;;;;;4934868;29;20253;-37
2022/01/29 13:27:37;;;;;;;5.63;1.70;;;;;;;;;;4934088;29;21188;-36
2022/01/29 13:30:18;;;;;;;4.28;1.30;;;;;;;;;;4935086;29;20780;-37
2022/01/29 13:32:45;;;;;;;3.95;1.50;;;;;;;;;;4934760;29;20230;-35
2022/01/29 13:35:12;;;;;;;4.82;1.55;;;;;;;;;;4934482;28;20238;-37
2022/01/29 13:37:39;;;;;;;2.97;1.45;;;;;;;;;;4935444;29;20234;-36
2022/01/29 13:40:07;;;;;;;3.78;1.33;;;;;;;;;;4935752;29;21068;-35
2022/01/29 13:42:35;;;;;;;3.15;1.40;;;;;;;;;;4935020;29;20713;-36
2022/01/29 13:45:02;;;;;;;6.30;1.40;;;;;;;;;;4935404;28;20230;-36
2022/01/29 13:47:29;;;;;;;3.28;1.20;;;;;;;;;;4916616;29;20242;-36
2022/01/29 13:49:56;;;;;;;3.45;1.25;;;;;;;;;;4925495;29;20229;-36
2022/01/29 13:52:23;;;;;;;4.32;1.10;;;;;;;;;;4935150;29;20232;-36
2022/01/29 13:54:50;;;;;;;2.33;1.23;;;;;;;;;;4935564;28;20585;-37
2022/01/29 13:57:37;;;;;;;6.85;1.50;;;;;;;;;;4935500;28;20252;-36
2022/01/29 14:00:05;;;;;;;3.63;1.17;;;;;;;;;;4935526;29;20246;-36
2022/01/29 14:02:32;;;;;;;3.03;1.15;;;;;;;;;;4934588;28;20324;-35
2022/01/29 14:04:59;;;;;;;3.65;1.15;;;;;;;;;;4918734;29;20234;-36
2022/01/29 14:07:26;;;;;;;5.63;1.38;;;;;;;;;;4914684;29;20261;-35
2022/01/29 14:09:59;;;;;;;3.13;1.15;;;;;;;;;;4914872;29;20237;-36
2022/01/29 14:12:27;;;;;;;3.97;0.90;;;;;;;;;;4929628;29;20238;-36
2022/01/29 14:14:54;;;;;;;5.82;1.40;;;;;;;;;;4933423;29;20238;-35
2022/01/29 14:17:21;;;;;;;3.05;1.10;;;;;;;;;;4951859;28;20238;-36
2022/01/29 14:19:48;;;;;;;3.45;1.02;;;;;;;;;;4941111;28;20249;-35
2022/01/29 14:22:15;;;;;;;2.55;1.13;;;;;;;;;;4933225;28;20337;-39
2022/01/29 14:24:42;;;;;;;7.35;1.23;;;;;;;;;;4928164;28;20238;-36
2022/01/29 14:27:09;;;;;;;7.50;1.20;;;;;;;;;;4929988;28;20111;-36
2022/01/29 14:29:37;;;;;;;2.85;0.95;;;;;;;;;;4925864;28;20238;-38
2022/01/29 14:32:19;;;;;;;11.07;1.60;;;;;;;;;;4929202;28;20230;-34
2022/01/29 14:34:56;;;;;;;7.60;1.45;;;;;;;;;;4929263;28;20261;-35
2022/01/29 14:37:23;;;;;;;7.28;1.35;;;;;;;;;;4930139;28;20234;-36
2022/01/29 14:39:50;;;;;;;4.07;1.50;;;;;;;;;;4930599;29;20273;-38
2022/01/29 14:42:25;;;;;;;5.47;1.50;;;;;;;;;;4928032;28;20352;-35
2022/01/29 14:44:52;;;;;;;5.43;1.40;;;;;;;;;;4929973;29;20444;-36
2022/01/29 14:47:20;;;;;;;10.13;1.38;;;;;;;;;;4929699;28;20451;-35